Libertyville, Alabama
Current Conditions -  °F | °C
As of 9:56 PM on Thursday 27 Nov 2014 (Local Time) from K79J Reporting Station
Clear Clear  
Wind Chill: 39°   Ceiling: Unl
Heat Index: 43°   Visibility: 10mi
Dew Point: 31°   Wind: 7mph
Humidity: 62%   Direction: 10°N
Pressure: 30.44"   Gusts: NA
Location:  31.1836°N, 86.5372°W
Report Text: K79J 280356Z AUTO 01006KT 10SM CLR 06/M01 A3044 RMK AO2 SLP306 T00611006
Loading
Personal Weather Stations






























Interactive Weather Map New forecast layout! Learn more

10-Day Weather Forecast

Advertisements
Track Severe Weather on mobile